createdAt,value
2019-03-09T00:01:01.645Z,79.50
2019-03-09T00:05:12.819Z,79.60
2019-03-09T00:09:25.996Z,79.70
2019-03-09T00:13:40.922Z,79.70
2019-03-09T00:17:53.027Z,79.60
2019-03-09T00:22:04.457Z,79.60
2019-03-09T00:26:18.410Z,79.60
2019-03-09T00:30:31.748Z,79.80
2019-03-09T00:34:44.707Z,79.60
2019-03-09T00:38:55.850Z,79.60
2019-03-09T00:43:07.167Z,79.60
2019-03-09T00:47:18.397Z,79.50
2019-03-09T00:51:29.703Z,79.50
2019-03-09T00:55:41.288Z,79.20
2019-03-09T00:59:57.210Z,79.00
2019-03-09T01:04:08.575Z,79.00
2019-03-09T01:08:19.941Z,78.70
2019-03-09T01:12:33.220Z,78.30
2019-03-09T01:16:44.493Z,78.10
2019-03-09T01:20:57.263Z,77.70
2019-03-09T01:25:09.997Z,77.60
2019-03-09T01:29:21.106Z,77.00
2019-03-09T01:33:32.420Z,77.30
2019-03-09T01:37:43.741Z,77.10
2019-03-09T01:41:55.191Z,77.20
2019-03-09T01:46:06.494Z,77.10
2019-03-09T01:50:17.684Z,76.90
2019-03-09T01:54:29.417Z,76.70
2019-03-09T01:58:44.204Z,76.20
2019-03-09T02:02:55.050Z,76.00
2019-03-09T02:07:07.917Z,75.80
2019-03-09T02:11:19.097Z,75.70
2019-03-09T02:15:30.888Z,75.80
2019-03-09T02:19:42.712Z,76.00
2019-03-09T02:23:55.656Z,75.80
2019-03-09T02:28:06.889Z,75.70
2019-03-09T02:32:18.079Z,75.40
2019-03-09T02:36:29.196Z,75.30
2019-03-09T02:40:40.551Z,75.20
2019-03-09T02:44:51.980Z,75.40
2019-03-09T02:49:05.049Z,75.70
2019-03-09T02:53:16.281Z,75.40
2019-03-09T02:57:29.139Z,74.90
2019-03-09T03:01:47.859Z,74.60
2019-03-09T03:05:58.976Z,74.50
2019-03-09T03:10:11.664Z,74.60
2019-03-09T03:14:22.925Z,74.60
2019-03-09T03:18:34.219Z,74.50
2019-03-09T03:22:47.476Z,74.50
2019-03-09T03:26:58.626Z,73.80
2019-03-09T03:31:10.011Z,73.10
2019-03-09T03:35:23.024Z,72.70
2019-03-09T03:39:35.918Z,72.60
2019-03-09T03:43:47.510Z,72.80
2019-03-09T03:48:08.196Z,72.90
2019-03-09T03:52:19.353Z,73.50
2019-03-09T03:56:32.414Z,73.40
2019-03-09T04:00:44.588Z,73.00
2019-03-09T04:04:56.866Z,72.30
2019-03-09T04:09:08.302Z,71.90
2019-03-09T04:13:19.795Z,71.90
2019-03-09T04:17:31.232Z,72.20
2019-03-09T04:21:44.908Z,73.20
2019-03-09T04:25:55.971Z,72.20
2019-03-09T04:30:12.863Z,72.40
2019-03-09T04:34:24.208Z,72.50
2019-03-09T04:38:35.381Z,72.10
2019-03-09T04:42:48.049Z,72.00
2019-03-09T04:46:59.307Z,72.30
2019-03-09T04:51:11.984Z,72.50
2019-03-09T04:55:23.429Z,72.60
2019-03-09T04:59:34.650Z,72.40
2019-03-09T05:03:48.004Z,72.20
2019-03-09T05:08:05.616Z,72.20
2019-03-09T05:12:16.895Z,72.50
2019-03-09T05:16:28.116Z,72.90
2019-03-09T05:20:40.508Z,73.70
2019-03-09T05:24:51.626Z,74.00
2019-03-09T05:29:02.780Z,74.50
2019-03-09T05:33:14.103Z,74.50
2019-03-09T05:37:25.384Z,75.10
2019-03-09T05:41:36.539Z,77.40
2019-03-09T05:45:48.875Z,77.70
2019-03-09T05:50:00.037Z,79.00
2019-03-09T05:54:11.505Z,79.50
2019-03-09T05:58:22.738Z,80.50
2019-03-09T06:02:34.052Z,82.10
2019-03-09T06:06:45.414Z,82.70
2019-03-09T06:10:56.609Z,83.40
2019-03-09T06:15:07.979Z,83.70
2019-03-09T06:19:19.292Z,84.40
2019-03-09T06:23:32.250Z,85.10
2019-03-09T06:27:43.495Z,85.80
2019-03-09T06:32:17.411Z,85.90
2019-03-09T06:36:33.384Z,85.90
2019-03-09T06:40:45.289Z,85.60
2019-03-09T06:44:57.537Z,85.20
2019-03-09T06:49:08.773Z,84.50
2019-03-09T06:53:19.962Z,83.60
2019-03-09T06:57:31.108Z,82.70
2019-03-09T07:01:43.308Z,81.90
2019-03-09T07:05:54.655Z,81.60
2019-03-09T07:10:07.312Z,81.10
2019-03-09T07:14:44.235Z,81.30
2019-03-09T07:18:55.675Z,81.30
2019-03-09T07:23:08.212Z,81.30
2019-03-09T07:27:19.333Z,81.90
2019-03-09T07:31:33.052Z,80.90
2019-03-09T07:35:44.296Z,80.70
2019-03-09T07:39:55.583Z,80.40
2019-03-09T07:44:07.925Z,80.30
2019-03-09T07:48:19.199Z,80.20
2019-03-09T07:52:33.040Z,79.20
2019-03-09T07:56:44.957Z,78.90
2019-03-09T08:01:00.366Z,75.90
2019-03-09T08:05:15.710Z,73.70
2019-03-09T08:09:27.045Z,71.40
2019-03-09T08:13:38.591Z,70.90
2019-03-09T08:17:49.871Z,69.30
2019-03-09T08:22:01.849Z,69.00
2019-03-09T08:26:14.305Z,67.80
2019-03-09T08:30:27.107Z,68.10
2019-03-09T08:34:38.996Z,68.20
2019-03-09T08:38:50.807Z,70.30
2019-03-09T08:43:02.011Z,72.20
2019-03-09T08:47:14.928Z,73.30
2019-03-09T08:51:26.119Z,73.80
2019-03-09T08:55:39.115Z,74.00
2019-03-09T08:59:51.619Z,73.30
2019-03-09T09:04:02.779Z,71.90
2019-03-09T09:08:15.696Z,69.60
2019-03-09T09:12:26.813Z,69.00
2019-03-09T09:16:38.064Z,68.60
2019-03-09T09:20:50.570Z,68.80
2019-03-09T09:25:01.817Z,68.60
2019-03-09T09:29:12.979Z,67.80
2019-03-09T09:33:24.118Z,65.80
2019-03-09T09:37:35.311Z,64.20
2019-03-09T09:41:48.705Z,66.20
2019-03-09T09:45:59.831Z,65.60
2019-03-09T09:50:16.009Z,64.50
2019-03-09T09:54:27.348Z,64.50
2019-03-09T09:58:40.300Z,61.40
2019-03-09T10:02:52.243Z,62.60
2019-03-09T10:07:04.634Z,62.30
2019-03-09T10:11:16.408Z,62.10
2019-03-09T10:15:32.862Z,62.00
2019-03-09T10:19:44.219Z,61.70
2019-03-09T10:23:57.973Z,60.30
2019-03-09T10:28:09.258Z,59.80
2019-03-09T10:32:20.516Z,60.60
2019-03-09T10:36:31.645Z,60.10
2019-03-09T10:40:43.442Z,60.20
2019-03-09T10:44:54.641Z,60.20
2019-03-09T10:49:05.948Z,59.10
2019-03-09T10:53:18.536Z,59.20
2019-03-09T10:57:31.398Z,58.10
2019-03-09T11:01:42.619Z,57.60
2019-03-09T11:05:54.044Z,57.20
2019-03-09T11:10:06.487Z,58.00
2019-03-09T11:14:17.666Z,58.80
2019-03-09T11:18:28.869Z,59.30
2019-03-09T11:22:40.111Z,59.50
2019-03-09T11:26:51.247Z,58.90
2019-03-09T11:31:02.586Z,59.20
2019-03-09T11:35:14.534Z,59.80
2019-03-09T11:39:25.682Z,59.60
2019-03-09T11:43:37.428Z,59.20
2019-03-09T11:47:48.999Z,58.60
2019-03-09T11:52:01.157Z,58.50
2019-03-09T11:56:11.740Z,58.90
2019-03-09T12:00:30.686Z,59.00
2019-03-09T12:04:46.594Z,59.00
2019-03-09T12:08:56.254Z,58.70
2019-03-09T12:13:08.935Z,58.60
2019-03-09T12:17:20.086Z,57.60
2019-03-09T12:21:31.542Z,56.50
2019-03-09T12:25:44.029Z,56.30
2019-03-09T12:29:55.221Z,57.30
2019-03-09T12:34:06.411Z,57.50
2019-03-09T12:38:17.530Z,57.70
2019-03-09T12:42:30.312Z,57.10
2019-03-09T12:46:44.234Z,57.70
2019-03-09T12:50:55.357Z,57.90
2019-03-09T12:55:08.358Z,57.70
2019-03-09T12:59:19.589Z,57.70
2019-03-09T13:03:30.761Z,58.80
2019-03-09T13:07:42.045Z,62.70
2019-03-09T13:11:53.165Z,73.80
2019-03-09T13:16:15.933Z,73.20
2019-03-09T13:20:30.907Z,69.60
2019-03-09T13:24:45.476Z,67.00
2019-03-09T13:28:57.999Z,64.60
2019-03-09T13:33:09.861Z,64.00
2019-03-09T13:37:21.071Z,63.20
2019-03-09T13:41:33.061Z,60.40
2019-03-09T13:45:46.497Z,58.70
2019-03-09T13:50:01.181Z,58.30
2019-03-09T13:54:12.384Z,57.70
2019-03-09T13:58:24.779Z,56.80
2019-03-09T14:02:35.903Z,56.90
2019-03-09T14:06:47.049Z,56.50
2019-03-09T14:11:00.743Z,56.10
2019-03-09T14:15:18.945Z,54.90
2019-03-09T14:19:30.081Z,55.10
2019-03-09T14:23:41.324Z,55.50
2019-03-09T14:27:54.028Z,55.40
2019-03-09T14:32:06.883Z,55.20
2019-03-09T14:36:18.998Z,53.80
2019-03-09T14:40:30.927Z,53.50
2019-03-09T14:44:44.236Z,53.20
2019-03-09T14:48:56.383Z,52.80
2019-03-09T14:53:07.902Z,52.00
2019-03-09T14:57:19.081Z,50.00
2019-03-09T15:01:31.530Z,48.90
2019-03-09T15:05:42.754Z,48.00
2019-03-09T15:09:53.869Z,54.80
2019-03-09T15:14:05.976Z,56.50
2019-03-09T15:18:18.726Z,55.80
2019-03-09T15:22:31.178Z,54.60
2019-03-09T15:26:43.970Z,53.60
2019-03-09T15:30:56.665Z,53.70
2019-03-09T15:35:08.928Z,54.10
2019-03-09T15:39:20.204Z,54.00
2019-03-09T15:43:32.095Z,54.00
2019-03-09T15:47:44.811Z,55.10
2019-03-09T15:51:58.172Z,55.80
2019-03-09T15:56:10.539Z,56.20
2019-03-09T16:00:26.999Z,56.60
2019-03-09T16:04:40.802Z,56.80
2019-03-09T16:08:51.934Z,57.30
2019-03-09T16:13:03.200Z,57.80
2019-03-09T16:17:14.479Z,57.70
2019-03-09T16:21:26.799Z,57.80
2019-03-09T16:25:38.963Z,58.00
2019-03-09T16:29:50.140Z,58.50
2019-03-09T16:34:02.668Z,59.90
2019-03-09T16:38:15.445Z,62.30
2019-03-09T16:42:29.565Z,63.70
2019-03-09T16:46:42.323Z,64.20
2019-03-09T16:50:53.558Z,64.10
2019-03-09T16:55:05.961Z,64.90
2019-03-09T16:59:19.759Z,65.60
2019-03-09T17:03:33.510Z,66.20
2019-03-09T17:07:47.743Z,66.90
2019-03-09T17:11:58.968Z,68.00
2019-03-09T17:16:11.387Z,69.10
2019-03-09T17:20:23.784Z,73.00
2019-03-09T17:24:37.181Z,84.50
2019-03-09T17:28:48.338Z,90.10
2019-03-09T17:32:59.645Z,91.00
2019-03-09T17:37:11.744Z,90.60
2019-03-09T17:41:22.867Z,90.70
2019-03-09T17:45:34.013Z,90.40
2019-03-09T17:49:45.329Z,90.10
2019-03-09T17:53:56.657Z,91.30
2019-03-09T17:58:08.022Z,92.30
2019-03-09T18:02:19.606Z,93.90
2019-03-09T18:06:31.211Z,94.60
2019-03-09T18:10:49.474Z,95.30
2019-03-09T18:15:01.682Z,94.30
2019-03-09T18:19:13.507Z,93.80
2019-03-09T18:23:24.951Z,91.90
2019-03-09T18:27:36.521Z,90.60
2019-03-09T18:31:48.174Z,90.80
2019-03-09T18:36:01.845Z,89.40
2019-03-09T18:40:17.158Z,88.50
2019-03-09T18:44:29.572Z,87.70
2019-03-09T18:48:40.870Z,88.40
2019-03-09T18:52:52.636Z,86.50
2019-03-09T18:57:03.717Z,86.00
2019-03-09T19:01:14.937Z,85.20
2019-03-09T19:05:26.636Z,85.10
2019-03-09T19:09:38.245Z,83.90
2019-03-09T19:13:49.514Z,82.70
2019-03-09T19:18:00.802Z,83.00
2019-03-09T19:22:13.798Z,82.40
2019-03-09T19:26:31.517Z,81.60
2019-03-09T19:30:44.824Z,77.40
2019-03-09T19:34:56.572Z,75.80
2019-03-09T19:39:07.781Z,76.90
2019-03-09T19:43:19.014Z,75.40
2019-03-09T19:47:30.344Z,74.20
2019-03-09T19:51:40.402Z,74.10
2019-03-09T19:55:51.044Z,73.50
2019-03-09T20:00:02.163Z,73.30
2019-03-09T20:09:02.207Z,73.50
2019-03-09T20:13:15.636Z,74.60
2019-03-09T20:17:26.765Z,75.00
2019-03-09T20:21:40.168Z,75.90
2019-03-09T20:25:51.768Z,76.70
2019-03-09T20:30:05.478Z,77.00
2019-03-09T20:34:16.771Z,76.90
2019-03-09T20:38:28.652Z,76.60
2019-03-09T20:42:40.169Z,77.60
2019-03-09T20:46:52.556Z,77.80
2019-03-09T20:51:04.959Z,76.30
2019-03-09T20:55:16.959Z,77.90
2019-03-09T20:59:29.921Z,77.70
2019-03-09T21:03:41.322Z,77.40
2019-03-09T21:07:52.536Z,77.70
2019-03-09T21:12:03.834Z,77.50
2019-03-09T21:16:15.128Z,77.20
2019-03-09T21:20:26.989Z,77.10
2019-03-09T21:24:39.090Z,76.80
2019-03-09T21:28:52.269Z,76.70
2019-03-09T21:33:04.920Z,75.60
2019-03-09T21:37:17.108Z,75.00
2019-03-09T21:41:28.561Z,74.40
2019-03-09T21:45:39.676Z,75.50
2019-03-09T21:49:50.935Z,76.50
2019-03-09T21:54:06.461Z,78.00
2019-03-09T21:58:18.911Z,78.70
2019-03-09T22:02:30.085Z,79.30
2019-03-09T22:06:41.910Z,79.70
2019-03-09T22:10:54.927Z,79.40
2019-03-09T22:15:09.339Z,79.10
2019-03-09T22:19:20.517Z,77.90
2019-03-09T22:23:43.529Z,77.70
2019-03-09T22:27:46.548Z,77.60
2019-03-09T22:31:58.940Z,77.10
2019-03-09T22:36:10.079Z,75.40
2019-03-09T22:40:22.537Z,73.90
2019-03-09T22:44:33.823Z,73.50
2019-03-09T22:48:45.303Z,73.30
2019-03-09T22:52:56.570Z,73.00
2019-03-09T22:57:07.150Z,73.50
2019-03-09T23:01:18.608Z,73.10
2019-03-09T23:05:30.516Z,72.80
2019-03-09T23:09:44.636Z,72.20
2019-03-09T23:13:57.582Z,72.00
2019-03-09T23:18:08.813Z,71.60
2019-03-09T23:22:20.048Z,71.80
2019-03-09T23:26:31.483Z,72.10
2019-03-09T23:30:47.209Z,71.90
2019-03-09T23:34:59.718Z,71.90
2019-03-09T23:39:11.787Z,71.40
2019-03-09T23:43:24.823Z,71.80
2019-03-09T23:47:37.590Z,72.10
2019-03-09T23:51:48.900Z,72.70
2019-03-09T23:56:01.372Z,72.40
